Time;durP1;ratioP1;P1;durP2;ratioP2;P2;SDS_P1;SDS_P2;PMS_P1;PMS_P2;Temp;Humidity;BMP_temperature;BMP_pressure;BME280_temperature;BME280_humidity;BME280_pressure;Samples;Min_cycle;Max_cycle;Signal;HPM_P1;HPM_P2
2022/05/21 00:01:00;;;;;;;12.37;4.60;;;15.30;77.50;;;;;;1790323;79;21124;-57
2022/05/21 00:03:30;;;;;;;6.72;4.25;;;15.30;77.50;;;;;;1793394;80;21094;-57
2022/05/21 00:05:59;;;;;;;11.00;4.70;;;15.30;77.70;;;;;;1821424;79;21054;-57
2022/05/21 00:08:29;;;;;;;8.15;3.90;;;15.30;77.70;;;;;;1790390;80;21090;-57
2022/05/21 00:10:58;;;;;;;8.53;4.10;;;15.30;77.40;;;;;;1793408;80;21132;-57
2022/05/21 00:13:28;;;;;;;5.12;3.83;;;15.30;77.50;;;;;;1821506;79;21069;-56
2022/05/21 00:15:57;;;;;;;8.58;4.42;;;15.30;77.50;;;;;;1790397;80;21060;-57
2022/05/21 00:18:27;;;;;;;6.25;3.65;;;15.30;77.40;;;;;;1793484;80;21054;-56
2022/05/21 00:20:56;;;;;;;6.78;4.53;;;15.30;77.40;;;;;;1821465;78;21053;-57
2022/05/21 00:23:28;;;;;;;8.05;3.80;;;15.30;77.30;;;;;;1790270;79;21127;-57
2022/05/21 00:26:00;;;;;;;5.42;3.55;;;15.30;77.50;;;;;;1793538;80;21163;-57
2022/05/21 00:28:30;;;;;;;9.05;4.03;;;15.30;77.50;;;;;;1821334;78;21029;-57
2022/05/21 00:30:59;;;;;;;11.38;4.03;;;15.20;77.40;;;;;;1790398;80;21090;-56
2022/05/21 00:33:30;;;;;;;8.03;4.42;;;15.20;77.40;;;;;;1793423;80;21147;-56
2022/05/21 00:35:59;;;;;;;6.95;4.10;;;15.20;77.20;;;;;;1821428;79;21122;-56
2022/05/21 00:38:29;;;;;;;10.32;4.12;;;15.20;77.30;;;;;;1790300;80;21120;-57
2022/05/21 00:40:58;;;;;;;10.28;4.62;;;15.20;77.20;;;;;;1793408;80;21029;-57
2022/05/21 00:43:52;;;;;;;9.00;4.30;;;15.20;77.40;;;;;;1821529;79;21049;-57
2022/05/21 00:46:23;;;;;;;7.67;3.87;;;15.20;77.30;;;;;;1790446;79;21053;-57
2022/05/21 00:48:55;;;;;;;4.55;3.65;;;15.20;77.20;;;;;;1793479;80;21507;-57
2022/05/21 00:51:27;;;;;;;9.28;4.12;;;15.10;77.20;;;;;;1821379;79;21085;-56
2022/05/21 00:53:59;;;;;;;7.05;4.22;;;15.10;77.40;;;;;;1790416;80;21088;-56
2022/05/21 00:56:31;;;;;;;12.23;4.30;;;15.20;77.20;;;;;;1801319;79;21518;-57
2022/05/21 01:01:51;;;;;;;7.95;4.30;;;15.20;77.40;;;;;;1807419;78;21079;-57
2022/05/21 01:04:20;;;;;;;6.90;3.72;;;15.20;77.40;;;;;;1802633;80;21045;-58
2022/05/21 01:06:49;;;;;;;6.00;4.17;;;15.20;77.40;;;;;;1839132;78;21025;-57
2022/05/21 01:09:19;;;;;;;8.30;4.12;;;15.10;77.30;;;;;;1807307;79;21056;-57
2022/05/21 01:11:48;;;;;;;7.05;3.95;;;15.20;77.40;;;;;;1802769;80;21127;-57
2022/05/21 01:14:20;;;;;;;6.08;3.98;;;15.20;77.50;;;;;;1839158;78;21052;-57
2022/05/21 01:16:51;;;;;;;7.62;4.35;;;15.20;77.40;;;;;;1807533;79;21052;-57
2022/05/21 01:19:20;;;;;;;7.03;4.00;;;15.10;77.60;;;;;;1802750;80;21126;-57
2022/05/21 01:21:50;;;;;;;6.28;4.20;;;15.20;77.50;;;;;;1839107;77;21052;-57
2022/05/21 01:24:20;;;;;;;8.53;3.90;;;15.10;77.50;;;;;;1807353;79;21020;-57
2022/05/21 01:26:50;;;;;;;5.58;3.42;;;15.10;77.40;;;;;;1802640;80;21044;-56
2022/05/21 01:29:24;;;;;;;5.72;3.67;;;15.10;77.50;;;;;;1839077;78;21502;-57
2022/05/21 01:31:54;;;;;;;8.58;4.00;;;15.10;77.50;;;;;;1807283;78;21652;-57
2022/05/21 01:34:26;;;;;;;5.67;3.42;;;15.10;77.50;;;;;;1802663;80;21164;-57
2022/05/21 01:36:54;;;;;;;8.58;3.92;;;15.10;77.40;;;;;;1839228;78;21099;-57
2022/05/21 01:39:24;;;;;;;5.62;3.42;;;15.10;77.20;;;;;;1807433;79;21088;-57
2022/05/21 01:41:53;;;;;;;7.92;4.45;;;15.00;77.10;;;;;;1802662;80;21126;-57
2022/05/21 01:44:41;;;;;;;4.95;3.50;;;15.00;77.00;;;;;;1839229;78;21111;-57
2022/05/21 01:47:13;;;;;;;5.60;3.10;;;15.10;76.90;;;;;;1807566;79;21072;-57
2022/05/21 01:49:43;;;;;;;8.23;3.27;;;15.10;76.70;;;;;;1802553;79;21056;-57
2022/05/21 01:52:13;;;;;;;6.22;3.10;;;15.10;76.60;;;;;;1839196;78;21131;-57
2022/05/21 01:54:43;;;;;;;7.58;3.90;;;15.00;76.50;;;;;;1807504;79;21056;-57
2022/05/21 01:57:12;;;;;;;5.50;3.33;;;15.10;76.40;;;;;;1794134;79;21081;-56
2022/05/21 01:59:42;;;;;;;5.97;3.98;;;15.10;76.20;;;;;;1821537;79;21480;-57
2022/05/21 02:02:12;;;;;;;5.35;3.77;;;15.10;76.10;;;;;;1790262;80;21175;-57
2022/05/21 02:04:42;;;;;;;8.15;3.90;;;15.10;76.60;;;;;;1793419;80;21082;-57
2022/05/21 02:07:11;;;;;;;4.10;3.15;;;15.10;75.90;;;;;;1821377;79;21174;-56
2022/05/21 02:09:40;;;;;;;9.03;5.05;;;15.10;75.90;;;;;;1790180;79;21127;-58
2022/05/21 02:12:14;;;;;;;5.50;3.72;;;15.10;75.80;;;;;;1793386;79;21089;-57
2022/05/21 02:14:41;;;;;;;7.42;3.62;;;15.20;75.90;;;;;;1821101;77;21573;-57
2022/05/21 02:17:11;;;;;;;9.05;3.87;;;15.20;75.90;;;;;;1790419;80;21057;-57
2022/05/21 02:19:40;;;;;;;5.25;3.37;;;15.20;75.80;;;;;;1793522;80;21081;-57
2022/05/21 02:22:10;;;;;;;10.32;4.10;;;15.20;75.90;;;;;;1821443;78;21020;-56
2022/05/21 02:24:39;;;;;;;4.58;3.50;;;15.20;75.90;;;;;;1790422;80;21127;-57
2022/05/21 02:27:13;;;;;;;5.42;3.77;;;15.20;75.90;;;;;;1793385;79;21074;-57
2022/05/21 02:29:43;;;;;;;7.63;4.00;;;15.20;75.80;;;;;;1821666;79;21049;-57
2022/05/21 02:32:14;;;;;;;6.12;4.20;;;15.20;75.70;;;;;;1790285;80;21061;-57
2022/05/21 02:34:44;;;;;;;6.15;3.40;;;15.20;75.60;;;;;;1793378;80;21138;-56
2022/05/21 02:40:00;;;;;;;9.65;3.83;;;15.20;75.40;;;;;;1790395;80;21083;-57
2022/05/21 02:42:52;;;;;;;3.90;3.22;;;15.20;75.30;;;;;;1793369;80;21066;-57
2022/05/21 02:45:03;;;;;;;8.35;3.10;;;15.20;75.20;;;;;;1809503;78;21048;-57
2022/05/21 02:47:33;;;;;;;8.83;3.60;;;15.30;75.20;;;;;;1790458;80;21168;-57
2022/05/21 02:50:02;;;;;;;7.47;3.60;;;15.30;75.10;;;;;;1793343;80;21153;-57
2022/05/21 02:52:32;;;;;;;6.67;4.05;;;15.30;75.00;;;;;;1821368;78;21110;-57
2022/05/21 02:55:02;;;;;;;5.92;3.60;;;15.30;74.90;;;;;;1790276;80;21139;-56
2022/05/21 02:57:31;;;;;;;8.18;3.85;;;15.30;74.80;;;;;;1793416;79;21116;-57
2022/05/21 03:00:10;;;;;;;7.72;4.12;;;15.30;74.70;;;;;;1830196;78;21048;-57
2022/05/21 03:02:39;;;;;;;7.60;3.40;;;15.30;74.60;;;;;;1798446;80;21033;-57
2022/05/21 03:05:09;;;;;;;6.90;3.90;;;15.40;74.60;;;;;;1799219;80;21175;-56
2022/05/21 03:07:40;;;;;;;11.45;4.10;;;15.40;74.40;;;;;;1799183;80;21579;-56
2022/05/21 03:10:23;;;;;;;11.55;4.42;;;15.40;74.30;;;;;;1799352;80;21168;-57
2022/05/21 03:13:02;;;;;;;14.75;3.62;;;15.40;74.00;;;;;;1799439;80;21131;-56
2022/05/21 03:15:33;;;;;;;6.70;4.00;;;15.40;73.80;;;;;;1799358;80;21119;-57
2022/05/21 03:18:04;;;;;;;5.72;3.67;;;15.40;73.80;;;;;;1799364;79;21053;-56
2022/05/21 03:20:34;;;;;;;7.00;4.20;;;15.50;73.70;;;;;;1799323;80;21110;-56
2022/05/21 03:23:04;;;;;;;9.18;4.25;;;15.50;73.60;;;;;;1799335;80;21115;-57
2022/05/21 03:25:33;;;;;;;3.60;3.17;;;15.50;73.30;;;;;;1799344;80;21045;-57
2022/05/21 03:28:03;;;;;;;3.70;2.75;;;15.50;73.30;;;;;;1799388;79;21147;-57
2022/05/21 03:30:33;;;;;;;5.00;3.33;;;15.50;73.00;;;;;;1799235;80;21082;-57
2022/05/21 03:33:02;;;;;;;6.90;3.30;;;15.60;73.00;;;;;;1799355;80;21166;-57
2022/05/21 03:35:32;;;;;;;6.78;3.65;;;15.60;72.80;;;;;;1799274;80;21053;-57
2022/05/21 03:38:02;;;;;;;4.35;2.83;;;15.70;72.40;;;;;;1799359;80;21573;-57
2022/05/21 03:40:32;;;;;;;5.33;3.27;;;15.70;72.30;;;;;;1799401;80;21072;-56
2022/05/21 03:43:03;;;;;;;4.58;3.22;;;15.70;72.00;;;;;;1799322;80;21131;-56
2022/05/21 03:45:32;;;;;;;7.17;3.37;;;15.80;71.80;;;;;;1799269;80;21546;-56
2022/05/21 03:48:02;;;;;;;8.73;3.77;;;15.80;71.80;;;;;;1799354;80;21120;-56
2022/05/21 03:50:32;;;;;;;9.28;3.33;;;15.80;71.70;;;;;;1799230;80;21135;-57
2022/05/21 03:53:02;;;;;;;6.17;3.52;;;15.90;71.50;;;;;;1799362;80;21033;-56
2022/05/21 03:55:31;;;;;;;6.75;3.52;;;15.90;71.70;;;;;;1799365;80;21065;-56
2022/05/21 03:58:01;;;;;;;5.80;3.55;;;16.00;71.70;;;;;;1799307;80;21053;-56
2022/05/21 04:00:31;;;;;;;9.93;3.72;;;16.00;71.80;;;;;;1802463;79;21093;-57
2022/05/21 04:03:01;;;;;;;4.78;3.27;;;16.00;71.70;;;;;;1839181;78;21118;-56
2022/05/21 04:05:31;;;;;;;5.90;3.62;;;16.00;71.60;;;;;;1807352;79;21555;-57
2022/05/21 04:08:02;;;;;;;3.83;2.98;;;16.00;71.30;;;;;;1802571;80;21077;-56
2022/05/21 04:10:31;;;;;;;5.85;3.40;;;16.00;72.00;;;;;;1839019;78;21107;-57
2022/05/21 04:13:01;;;;;;;5.45;3.60;;;16.00;71.50;;;;;;1807424;79;21126;-57
2022/05/21 04:15:30;;;;;;;10.88;3.92;;;16.00;71.60;;;;;;1802519;80;21088;-56
2022/05/21 04:18:00;;;;;;;7.30;3.35;;;16.10;71.30;;;;;;1838994;78;21114;-56
2022/05/21 04:20:30;;;;;;;5.75;3.37;;;16.10;71.40;;;;;;1807337;79;21025;-57
2022/05/21 04:22:59;;;;;;;8.30;4.03;;;16.20;71.40;;;;;;1802543;80;21088;-57
2022/05/21 04:25:28;;;;;;;7.08;3.33;;;16.30;71.10;;;;;;1839092;78;21048;-57
2022/05/21 04:27:58;;;;;;;3.17;2.02;;;16.50;70.80;;;;;;1807328;79;21131;-56
2022/05/21 04:30:29;;;;;;;10.10;3.17;;;16.60;70.40;;;;;;1802425;80;21049;-56
2022/05/21 04:33:00;;;;;;;5.85;3.40;;;16.70;70.00;;;;;;1839027;78;21044;-56
2022/05/21 04:38:17;;;;;;;12.88;4.67;;;16.90;69.60;;;;;;1802645;79;21083;-56
2022/05/21 04:40:47;;;;;;;3.35;2.80;;;17.00;69.30;;;;;;1839271;77;21179;-57
2022/05/21 04:43:17;;;;;;;3.58;3.25;;;17.10;68.90;;;;;;1807492;78;21197;-57
2022/05/21 04:45:46;;;;;;;5.08;3.02;;;17.20;68.70;;;;;;1802801;80;21053;-57
2022/05/21 04:48:15;;;;;;;7.37;3.60;;;17.30;68.80;;;;;;1839092;77;21032;-56
2022/05/21 04:50:45;;;;;;;7.22;3.50;;;17.40;68.50;;;;;;1807485;79;21126;-56
2022/05/21 04:53:14;;;;;;;6.97;4.28;;;17.40;68.40;;;;;;1802642;79;21057;-56
2022/05/21 04:55:43;;;;;;;4.37;3.10;;;17.50;67.60;;;;;;1839235;77;21474;-56
2022/05/21 04:58:13;;;;;;;3.90;3.05;;;17.60;67.00;;;;;;1807397;79;21135;-56
2022/05/21 05:00:42;;;;;;;5.22;3.10;;;17.70;67.00;;;;;;1802676;79;21081;-56
2022/05/21 05:03:14;;;;;;;3.40;3.00;;;17.80;66.70;;;;;;1839176;77;21040;-56
2022/05/21 05:05:44;;;;;;;4.03;2.80;;;17.90;66.60;;;;;;1807524;79;21028;-57
2022/05/21 05:08:15;;;;;;;4.50;3.22;;;18.00;66.20;;;;;;1807513;79;21024;-56
2022/05/21 05:10:46;;;;;;;4.72;3.02;;;18.00;66.10;;;;;;1839145;78;21114;-56
2022/05/21 05:13:17;;;;;;;4.15;2.67;;;18.00;65.60;;;;;;1802780;80;21107;-57
2022/05/21 05:15:47;;;;;;;5.40;3.10;;;18.10;65.30;;;;;;1839207;78;21072;-56
2022/05/21 05:18:19;;;;;;;3.37;3.00;;;18.10;65.20;;;;;;1839276;77;21193;-57
2022/05/21 05:20:49;;;;;;;14.45;3.62;;;18.20;65.20;;;;;;1802804;80;21138;-56
2022/05/21 05:23:18;;;;;;;6.53;3.37;;;18.30;65.10;;;;;;1839077;78;21107;-56
2022/05/21 05:25:47;;;;;;;9.60;3.62;;;18.30;64.90;;;;;;1807406;79;21059;-56
2022/05/21 05:28:24;;;;;;;8.68;3.10;;;18.40;64.90;;;;;;1802605;79;21073;-56
2022/05/21 05:30:53;;;;;;;5.33;3.25;;;18.40;64.80;;;;;;1839038;78;21048;-56
2022/05/21 05:33:23;;;;;;;10.85;3.75;;;18.50;64.70;;;;;;1807376;79;21498;-58
2022/05/21 05:35:52;;;;;;;7.20;2.62;;;18.50;63.90;;;;;;1802449;80;21053;-57
2022/05/21 05:38:23;;;;;;;6.12;2.25;;;18.60;63.90;;;;;;1839114;78;21095;-57
2022/05/21 05:40:55;;;;;;;4.33;2.75;;;18.60;63.90;;;;;;1807464;79;21032;-58
2022/05/21 05:43:24;;;;;;;9.63;3.35;;;18.60;64.20;;;;;;1802660;80;21049;-57
2022/05/21 05:45:58;;;;;;;5.47;2.05;;;18.60;64.00;;;;;;1839089;77;21048;-57
2022/05/21 05:48:25;;;;;;;6.37;3.30;;;18.50;63.10;;;;;;1806712;78;21064;-58
2022/05/21 05:50:56;;;;;;;3.47;2.60;;;18.40;63.60;;;;;;1802391;79;21025;-58
2022/05/21 05:53:26;;;;;;;9.30;2.77;;;18.30;63.80;;;;;;1838628;77;21146;-58
2022/05/21 05:55:55;;;;;;;3.00;2.70;;;18.30;64.50;;;;;;1837864;78;21025;-57
2022/05/21 06:01:14;;;;;;;8.20;3.05;;;18.40;64.50;;;;;;1837845;78;21127;-57
2022/05/21 06:03:43;;;;;;;7.08;3.30;;;18.50;64.90;;;;;;1837575;78;21126;-57
2022/05/21 06:06:13;;;;;;;4.42;3.22;;;18.50;64.10;;;;;;1837958;78;21028;-57
2022/05/21 06:08:43;;;;;;;10.05;3.62;;;18.50;64.20;;;;;;1837838;78;21115;-57
2022/05/21 06:11:14;;;;;;;5.42;2.58;;;18.60;64.00;;;;;;1838427;77;21010;-57
2022/05/21 06:13:43;;;;;;;3.62;3.00;;;18.70;63.50;;;;;;1838256;77;21026;-57
2022/05/21 06:16:15;;;;;;;8.55;2.67;;;18.70;63.30;;;;;;1838170;78;21107;-58
2022/05/21 06:18:44;;;;;;;7.83;3.30;;;18.70;63.40;;;;;;1838319;78;21053;-57
2022/05/21 06:21:14;;;;;;;5.33;3.27;;;18.70;63.70;;;;;;1838275;77;21536;-58
2022/05/21 06:23:44;;;;;;;10.65;2.40;;;18.70;63.70;;;;;;1836189;78;21032;-58
2022/05/21 06:26:14;;;;;;;5.65;2.45;;;18.70;62.80;;;;;;1806585;79;21068;-58
2022/05/21 06:28:43;;;;;;;5.22;3.17;;;18.60;63.00;;;;;;1808558;79;21042;-58
2022/05/21 06:31:13;;;;;;;6.15;3.15;;;18.40;63.30;;;;;;1837972;77;21084;-58
2022/05/21 06:33:42;;;;;;;6.78;2.85;;;18.40;63.80;;;;;;1806151;78;21049;-58
2022/05/21 06:36:14;;;;;;;2.80;2.47;;;18.30;64.20;;;;;;1805988;79;21019;-58
2022/05/21 06:38:44;;;;;;;2.22;2.02;;;18.30;64.10;;;;;;1809780;78;21055;-58
2022/05/21 06:41:13;;;;;;;3.52;2.67;;;18.40;64.00;;;;;;1806423;79;21119;-57
2022/05/21 06:43:43;;;;;;;8.13;3.10;;;18.50;63.70;;;;;;1806594;79;21066;-58
2022/05/21 06:46:14;;;;;;;8.28;2.98;;;18.60;64.00;;;;;;1837715;78;21048;-58
2022/05/21 06:48:43;;;;;;;8.15;2.92;;;18.80;63.30;;;;;;1806818;79;21109;-58
2022/05/21 06:51:13;;;;;;;4.72;2.50;;;18.90;62.50;;;;;;1810068;78;21047;-57
2022/05/21 06:53:43;;;;;;;4.05;2.20;;;19.00;62.10;;;;;;1807106;78;21487;-57
2022/05/21 06:56:14;;;;;;;6.03;2.67;;;19.00;62.00;;;;;;1808033;78;21060;-57
2022/05/21 06:58:44;;;;;;;5.20;2.72;;;19.00;62.00;;;;;;1805957;79;21028;-57
2022/05/21 07:01:15;;;;;;;7.35;2.30;;;19.00;61.80;;;;;;1802765;78;21085;-57
2022/05/21 07:03:44;;;;;;;5.30;2.90;;;19.00;61.30;;;;;;1791432;79;21057;-57
2022/05/21 07:09:01;;;;;;;13.93;2.42;;;19.00;61.10;;;;;;1786086;79;21068;-58
2022/05/21 07:11:32;;;;;;;15.13;2.45;;;19.00;59.50;;;;;;1819336;79;21005;-58
2022/05/21 07:14:01;;;;;;;3.52;2.02;;;19.00;59.00;;;;;;1820787;77;21028;-58
2022/05/21 07:16:31;;;;;;;2.08;1.65;;;19.00;58.60;;;;;;1818590;79;21040;-57
2022/05/21 07:19:00;;;;;;;4.33;2.12;;;19.00;58.60;;;;;;1819515;78;21038;-57
2022/05/21 07:21:30;;;;;;;1.50;1.27;;;18.90;59.00;;;;;;1819782;77;21041;-57
2022/05/21 07:23:59;;;;;;;5.42;2.05;;;19.00;58.90;;;;;;1820293;79;21154;-57
2022/05/21 07:26:29;;;;;;;3.08;2.05;;;19.00;58.60;;;;;;1817837;79;21109;-58
2022/05/21 07:28:58;;;;;;;7.70;2.85;;;18.90;58.70;;;;;;1818954;78;21040;-58
2022/05/21 07:31:29;;;;;;;4.42;2.55;;;19.00;59.30;;;;;;1816040;77;21028;-59
2022/05/21 07:33:58;;;;;;;7.65;1.98;;;19.10;58.90;;;;;;1819305;79;21286;-59
2022/05/21 07:36:28;;;;;;;2.75;1.52;;;19.20;57.90;;;;;;1815586;78;21045;-59
2022/05/21 07:38:57;;;;;;;20.15;4.00;;;19.30;56.80;;;;;;1818326;77;21107;-59
2022/05/21 07:41:27;;;;;;;3.42;2.33;;;19.40;57.30;;;;;;1814908;77;21154;-59
2022/05/21 07:43:57;;;;;;;3.92;1.72;;;19.40;56.80;;;;;;1815022;77;21118;-59
2022/05/21 07:46:26;;;;;;;4.15;2.02;;;19.50;57.00;;;;;;1814745;79;21048;-59
2022/05/21 07:48:56;;;;;;;9.05;2.50;;;19.60;56.90;;;;;;1814957;79;21040;-59
2022/05/21 07:51:25;;;;;;;8.95;2.50;;;19.60;56.40;;;;;;1814857;77;21040;-59
2022/05/21 07:53:55;;;;;;;8.53;2.02;;;19.70;55.80;;;;;;1815058;79;21056;-59
2022/05/21 07:56:25;;;;;;;15.72;2.98;;;19.70;55.70;;;;;;1814974;79;21052;-59
2022/05/21 07:58:54;;;;;;;4.05;1.60;;;19.70;55.60;;;;;;1815086;77;21040;-59
2022/05/21 08:01:24;;;;;;;4.55;1.80;;;19.80;54.90;;;;;;1818957;78;21079;-59
2022/05/21 08:03:54;;;;;;;6.37;2.10;;;19.90;55.50;;;;;;1829686;77;21039;-59
2022/05/21 08:06:23;;;;;;;6.12;1.70;;;19.90;55.30;;;;;;1829615;78;21118;-59
2022/05/21 08:08:54;;;;;;;12.50;2.17;;;20.00;54.10;;;;;;1829717;78;21063;-59
2022/05/21 08:11:23;;;;;;;10.30;2.10;;;20.00;53.30;;;;;;1829769;77;21556;-59
2022/05/21 08:13:53;;;;;;;8.38;1.70;;;20.10;53.70;;;;;;1829889;78;21047;-59
2022/05/21 08:16:22;;;;;;;2.83;1.60;;;20.10;53.20;;;;;;1829730;77;21024;-59
2022/05/21 08:18:52;;;;;;;2.60;1.60;;;20.10;53.60;;;;;;1829865;78;21066;-59
2022/05/21 08:21:22;;;;;;;7.87;2.37;;;20.20;53.70;;;;;;1829919;77;21071;-59
2022/05/21 08:26:57;;;;;;;3.12;1.75;;;20.40;53.40;;;;;;1829756;78;21114;-59
2022/05/21 08:29:35;;;;;;;13.10;2.10;;;20.40;53.00;;;;;;1829787;78;21068;-59
2022/05/21 08:32:06;;;;;;;13.00;1.98;;;20.50;51.90;;;;;;1829703;77;21110;-59
2022/05/21 08:34:35;;;;;;;2.58;1.42;;;20.50;51.10;;;;;;1829838;78;21125;-59
2022/05/21 08:37:04;;;;;;;8.15;2.10;;;20.40;50.50;;;;;;1829794;77;21117;-59
2022/05/21 08:39:36;;;;;;;8.83;2.25;;;20.40;51.30;;;;;;1829943;78;21129;-59
2022/05/21 08:42:13;;;;;;;9.00;2.80;;;20.40;51.10;;;;;;1829822;78;21042;-59
2022/05/21 08:44:45;;;;;;;4.60;1.72;;;20.40;51.00;;;;;;1829803;77;21560;-59
2022/05/21 08:47:23;;;;;;;2.47;1.25;;;20.50;51.10;;;;;;1829905;77;21071;-59
2022/05/21 08:50:07;;;;;;;8.03;2.10;;;20.50;51.10;;;;;;1829835;77;21058;-59
2022/05/21 08:52:42;;;;;;;2.60;1.67;;;20.60;51.30;;;;;;1830088;78;21123;-59
2022/05/21 08:55:14;;;;;;;4.50;1.92;;;20.60;50.00;;;;;;1829894;78;21133;-59
2022/05/21 08:57:46;;;;;;;3.77;1.75;;;20.60;51.10;;;;;;1829779;77;21459;-59
2022/05/21 09:00:22;;;;;;;5.50;1.90;;;20.60;50.80;;;;;;1829891;77;21072;-59
2022/05/21 09:02:54;;;;;;;9.50;1.70;;;20.60;50.40;;;;;;1829701;78;21064;-59
2022/05/21 09:05:25;;;;;;;3.72;1.32;;;20.60;49.10;;;;;;1829780;77;21067;-59
2022/05/21 09:08:16;;;;;;;4.65;1.80;;;20.70;49.80;;;;;;1829724;77;21040;-59
2022/05/21 09:11:04;;;;;;;2.15;1.55;;;20.70;49.40;;;;;;1829617;78;21106;-58
2022/05/21 09:13:46;;;;;;;1.85;1.47;;;20.70;48.80;;;;;;1829847;77;21486;-58
2022/05/21 09:19:12;;;;;;;16.60;2.37;;;20.70;48.60;;;;;;1829727;77;21114;-58
2022/05/21 09:21:46;;;;;;;3.45;1.57;;;20.70;48.30;;;;;;1829394;78;21071;-58
2022/05/21 09:24:34;;;;;;;9.25;1.60;;;20.70;48.00;;;;;;1829806;77;21059;-58
2022/05/21 09:27:04;;;;;;;31.62;4.08;;;20.70;48.30;;;;;;1829713;78;21047;-58
2022/05/21 09:29:37;;;;;;;18.05;3.37;;;20.70;48.10;;;;;;1829731;78;21044;-58
2022/05/21 09:32:21;;;;;;;8.05;2.37;;;20.70;48.10;;;;;;1829836;77;21067;-58
2022/05/21 09:35:03;;;;;;;7.33;3.33;;;20.70;48.50;;;;;;1827323;78;21127;-58
2022/05/21 09:37:32;;;;;;;4.47;1.85;;;20.70;48.10;;;;;;1829738;77;21055;-58
2022/05/21 09:40:02;;;;;;;3.42;1.32;;;20.80;48.60;;;;;;1829800;78;21043;-58
2022/05/21 09:45:29;;;;;;;1.87;1.35;;;20.70;47.70;;;;;;1829801;77;21059;-58
2022/05/21 09:48:10;;;;;;;12.28;1.67;;;20.70;48.00;;;;;;1829776;77;21059;-58
2022/05/21 09:50:54;;;;;;;3.60;1.22;;;20.70;47.10;;;;;;1829815;77;21544;-58
2022/05/21 09:53:38;;;;;;;3.65;1.50;;;20.80;47.40;;;;;;1829896;77;21117;-58
2022/05/21 09:56:28;;;;;;;6.40;1.35;;;20.80;47.40;;;;;;1829859;78;21147;-58
2022/05/21 09:59:15;;;;;;;5.80;1.80;;;20.90;47.00;;;;;;1829859;78;21019;-58
2022/05/21 10:01:53;;;;;;;15.50;1.77;;;21.00;46.50;;;;;;1820377;77;21138;-58
2022/05/21 10:04:41;;;;;;;2.85;1.20;;;20.90;46.90;;;;;;1829840;78;21153;-58
2022/05/21 10:10:58;;;;;;;3.55;1.98;;;21.00;47.00;;;;;;1829859;78;21048;-58
2022/05/21 10:12:44;;;;;;;3.42;1.82;;;21.10;47.80;;;;;;1829738;77;21126;-58
2022/05/21 10:15:16;;;;;;;4.25;1.60;;;21.10;48.30;;;;;;1829783;78;21055;-58
2022/05/21 10:17:48;;;;;;;3.47;1.50;;;21.20;47.50;;;;;;1828393;78;21546;-58
2022/05/21 10:20:33;;;;;;;4.08;2.05;;;21.20;46.60;;;;;;1829784;77;21105;-58
2022/05/21 10:23:09;;;;;;;4.60;1.70;;;21.20;47.10;;;;;;1829912;77;21486;-58
2022/05/21 10:26:01;;;;;;;2.00;1.55;;;21.20;47.30;;;;;;1829706;77;21035;-58
2022/05/21 10:28:52;;;;;;;11.40;1.75;;;21.20;47.00;;;;;;1829810;78;21153;-58
2022/05/21 10:31:41;;;;;;;1.65;1.40;;;21.20;47.00;;;;;;1829701;77;21064;-58
2022/05/21 10:34:19;;;;;;;3.08;1.30;;;21.10;46.10;;;;;;1829693;77;21040;-58
2022/05/21 10:37:03;;;;;;;4.12;1.35;;;21.10;46.20;;;;;;1829235;77;21072;-58
2022/05/21 10:40:07;;;;;;;2.47;1.20;;;21.10;46.20;;;;;;1829098;78;21125;-58
2022/05/21 10:42:56;;;;;;;12.30;2.33;;;21.10;45.80;;;;;;1829911;78;21651;-58
2022/05/21 10:45:28;;;;;;;6.62;1.70;;;21.20;45.50;;;;;;1829718;78;21060;-58
2022/05/21 10:48:27;;;;;;;5.33;1.25;;;21.20;45.80;;;;;;1828783;78;21607;-58
2022/05/21 10:51:06;;;;;;;4.30;2.42;;;21.30;45.50;;;;;;1829590;78;21073;-58
2022/05/21 10:54:04;;;;;;;4.97;1.60;;;21.30;44.90;;;;;;1829824;77;21040;-58
2022/05/21 10:56:36;;;;;;;4.08;1.60;;;21.20;44.90;;;;;;1829854;77;21036;-58
2022/05/21 10:59:11;;;;;;;5.20;1.80;;;21.20;44.30;;;;;;1828691;77;21702;-58
2022/05/21 11:02:15;;;;;;;4.50;1.70;;;21.20;44.90;;;;;;1828700;78;21565;-58
2022/05/21 11:04:47;;;;;;;3.90;1.10;;;21.30;45.00;;;;;;1815421;78;21068;-58
2022/05/21 11:07:34;;;;;;;5.75;1.37;;;21.40;44.00;;;;;;1814475;77;21076;-58
2022/05/21 11:10:18;;;;;;;2.30;1.42;;;21.40;43.90;;;;;;1814922;79;21044;-58
2022/05/21 11:13:05;;;;;;;2.87;1.47;;;21.40;44.90;;;;;;1814797;78;21106;-58
2022/05/21 11:15:43;;;;;;;3.37;1.20;;;21.40;44.80;;;;;;1788139;78;21211;-58
2022/05/21 11:18:31;;;;;;;7.03;1.60;;;21.50;44.00;;;;;;1813937;78;21064;-58
2022/05/21 11:21:16;;;;;;;4.28;1.27;;;21.60;44.40;;;;;;1814837;78;21044;-58
2022/05/21 11:23:48;;;;;;;4.35;1.82;;;21.60;44.30;;;;;;1815017;78;21576;-58
2022/05/21 11:26:26;;;;;;;11.22;1.32;;;21.50;44.00;;;;;;1814270;79;21064;-58
2022/05/21 11:29:19;;;;;;;27.13;3.50;;;21.50;44.30;;;;;;1812623;78;21044;-58
2022/05/21 11:37:57;;;;;;;3.00;1.55;;;21.40;44.00;;;;;;1815135;77;21084;-58
2022/05/21 11:40:51;;;;;;;10.82;1.65;;;21.30;44.40;;;;;;1815142;77;21024;-58
2022/05/21 11:43:21;;;;;;;6.12;1.85;;;21.30;44.70;;;;;;1815100;78;21091;-58
2022/05/21 11:46:07;;;;;;;5.47;1.35;;;21.30;44.70;;;;;;1815118;78;21080;-58
2022/05/21 11:48:35;;;;;;;;;;;21.30;44.00;;;;;;1817809;77;21036;-58
2022/05/21 11:51:22;;;;;;;8.30;3.08;;;21.20;43.30;;;;;;1781881;80;20116;-58
2022/05/21 11:53:51;;;;;;;5.25;1.75;;;21.20;44.50;;;;;;1815095;78;21119;-58
2022/05/21 11:56:21;;;;;;;4.42;1.07;;;21.20;44.30;;;;;;1815000;77;21047;-58
2022/05/21 11:59:02;;;;;;;7.28;1.40;;;21.30;44.00;;;;;;1815128;78;21087;-58
2022/05/21 12:01:43;;;;;;;11.00;2.02;;;21.20;43.90;;;;;;1815026;77;21111;-59
2022/05/21 12:04:31;;;;;;;2.00;0.85;;;21.10;44.20;;;;;;1814987;77;21538;-58
2022/05/21 12:07:02;;;;;;;12.18;2.02;;;21.10;44.20;;;;;;1815082;78;21079;-58
2022/05/21 12:09:34;;;;;;;6.87;1.57;;;21.10;44.60;;;;;;1814881;77;21084;-59
2022/05/21 12:12:28;;;;;;;5.10;1.80;;;21.10;44.40;;;;;;1814868;78;21549;-59
2022/05/21 12:17:57;;;;;;;2.95;1.62;;;21.00;44.10;;;;;;1894492;76;21009;-58
2022/05/21 12:20:51;;;;;;;5.70;2.02;;;21.00;44.30;;;;;;1894263;76;21045;-59
2022/05/21 12:23:37;;;;;;;3.50;1.50;;;21.00;44.60;;;;;;1894287;76;21107;-59
2022/05/21 12:26:09;;;;;;;3.72;1.80;;;21.10;44.30;;;;;;1894276;76;21471;-59
2022/05/21 12:28:47;;;;;;;4.08;1.67;;;21.20;44.60;;;;;;1854244;77;21492;-59
2022/05/21 12:31:22;;;;;;;2.30;1.30;;;21.20;44.30;;;;;;1855579;77;21042;-58
2022/05/21 12:33:57;;;;;;;5.95;1.75;;;21.10;44.40;;;;;;1843183;77;21188;-58
2022/05/21 12:37:03;;;;;;;3.30;1.50;;;21.10;44.50;;;;;;1843168;77;21050;-59
2022/05/21 12:39:38;;;;;;;2.12;1.25;;;21.10;44.70;;;;;;1855670;77;21214;-59
2022/05/21 12:42:20;;;;;;;4.97;1.57;;;21.10;44.20;;;;;;1854745;77;21082;-60
2022/05/21 12:44:49;;;;;;;6.15;2.00;;;21.10;44.40;;;;;;1855515;77;21074;-59
2022/05/21 12:47:33;;;;;;;3.40;1.32;;;21.10;44.00;;;;;;1855611;77;21047;-59
2022/05/21 12:50:04;;;;;;;4.58;1.52;;;21.20;44.30;;;;;;1854765;77;21083;-59
2022/05/21 12:52:49;;;;;;;3.35;1.50;;;21.20;44.30;;;;;;1855545;77;21073;-59
2022/05/21 12:55:27;;;;;;;5.70;1.45;;;21.20;44.30;;;;;;1855816;77;21198;-59
2022/05/21 12:58:11;;;;;;;3.45;1.82;;;21.30;44.40;;;;;;1855666;77;21038;-59
2022/05/21 13:00:43;;;;;;;5.62;1.60;;;21.30;44.40;;;;;;1855663;77;21039;-59
2022/05/21 13:03:14;;;;;;;2.98;1.60;;;21.30;44.50;;;;;;1852959;77;21054;-59
2022/05/21 13:05:58;;;;;;;8.25;1.40;;;21.30;44.70;;;;;;1855624;77;21489;-59
2022/05/21 13:08:29;;;;;;;4.60;1.55;;;21.40;45.00;;;;;;1855755;77;21544;-59
2022/05/21 13:11:07;;;;;;;3.40;1.55;;;21.40;44.90;;;;;;1855646;77;21014;-59
2022/05/21 13:13:41;;;;;;;4.42;2.00;;;21.40;44.90;;;;;;1855739;77;21066;-59
2022/05/21 13:16:16;;;;;;;4.72;1.60;;;21.40;45.00;;;;;;1854468;77;21055;-59
2022/05/21 13:18:58;;;;;;;3.27;1.92;;;21.50;44.60;;;;;;1854120;77;21055;-59
2022/05/21 13:21:45;;;;;;;7.87;1.60;;;21.40;44.60;;;;;;1928752;74;21022;-59
2022/05/21 13:24:32;;;;;;;1.85;1.40;;;21.40;44.40;;;;;;1885940;76;21464;-59
2022/05/21 13:27:10;;;;;;;3.12;2.80;;;21.30;44.20;;;;;;1928749;74;21042;-59
2022/05/21 13:29:40;;;;;;;4.35;1.35;;;21.20;44.90;;;;;;1885583;75;21106;-59
2022/05/21 13:32:42;;;;;;;2.25;1.70;;;21.20;45.40;;;;;;1928867;74;21010;-59
2022/05/21 13:35:21;;;;;;;3.22;1.52;;;21.30;45.50;;;;;;1792341;80;21092;-59
2022/05/21 13:37:50;;;;;;;2.30;1.17;;;21.40;45.80;;;;;;1862732;77;20987;-59
2022/05/21 13:40:34;;;;;;;2.65;1.75;;;21.30;45.00;;;;;;1823460;79;21044;-59
2022/05/21 13:43:09;;;;;;;2.83;1.30;;;21.30;45.30;;;;;;1821755;78;21122;-59
2022/05/21 13:45:41;;;;;;;4.03;1.90;;;21.10;45.40;;;;;;1823827;79;21158;-59
2022/05/21 13:48:13;;;;;;;2.87;1.77;;;21.10;45.80;;;;;;1823565;78;21547;-59
2022/05/21 13:50:44;;;;;;;3.40;1.50;;;21.10;46.40;;;;;;1823416;78;21041;-59
2022/05/21 13:53:19;;;;;;;2.92;1.55;;;21.10;46.40;;;;;;1823572;79;21044;-59